Station Historical Data
Daily Summary for April 14, 2017 Units:  English    Metric   Both
Next Day »
Daily Weekly Monthly Yearly Custom
  High: Low: Average:
Temperature: 51.7 °F 35.1 °F 42.8 °F
Dew Point: 41.3 °F 32.7 °F 36.7 °F
Humidity: 92% 53% 80%
Wind Speed: 11.0mph 0.0mph 1.2mph
Wind Gust: 16.0mph - -
Wind- - West
Pressure: 30.26 in 30.18 in -
Precipitation: 0.03 in    
Historical Graphs
 
 
Tabular Data for April 14, 2017
Time Temperature Dew Point Pressure Wind Wind Speed Wind Gust Humidity Rainfall Rate (Hourly) solar Conditions
00:01 40.2 °F 37.8 °F 30.20 in Calm     91% 0.00 in 0.00 W/m2
00:06 40.1 °F 37.7 °F 30.20 in Calm     91% 0.00 in 0.00 W/m2
00:11 40.1 °F 37.7 °F 30.20 in Calm     91% 0.00 in 0.00 W/m2
00:16 40.1 °F 37.7 °F 30.20 in Calm     91% 0.00 in 0.00 W/m2
00:21 40.0 °F 37.6 °F 30.20 in Calm     91% 0.00 in 0.00 W/m2
00:26 40.0 °F 37.6 °F 30.20 in Calm     91% 0.00 in 0.00 W/m2
00:31 40.0 °F 37.6 °F 30.20 in Calm     91% 0.00 in 0.00 W/m2
00:36 40.0 °F 37.6 °F 30.21 in Calm     91% 0.00 in 0.00 W/m2
00:41 40.0 °F 37.6 °F 30.20 in Calm     91% 0.00 in 0.00 W/m2
00:46 40.0 °F 37.6 °F 30.21 in Calm     91% 0.00 in 0.00 W/m2
00:51 40.0 °F 37.6 °F 30.21 in Calm     91% 0.00 in 0.00 W/m2
00:56 40.0 °F 37.6 °F 30.21 in Calm     91% 0.00 in 0.00 W/m2
01:01 40.0 °F 37.6 °F 30.21 in Calm     91% 0.00 in 0.00 W/m2
01:06 40.0 °F 37.6 °F 30.21 in Calm     91% 0.00 in 0.00 W/m2
01:11 39.9 °F 37.5 °F 30.21 in Calm     91% 0.00 in 0.00 W/m2
01:16 39.9 °F 37.5 °F 30.21 in Calm     91% 0.00 in 0.00 W/m2
01:21 39.8 °F 37.4 °F 30.22 in Calm     91% 0.00 in 0.00 W/m2
01:26 39.7 °F 37.3 °F 30.22 in Calm     91% 0.00 in 0.00 W/m2
01:31 39.7 °F 37.3 °F 30.21 in Calm     91% 0.00 in 0.00 W/m2
01:36 39.6 °F 37.2 °F 30.21 in Calm     91% 0.00 in 0.00 W/m2
01:41 39.5 °F 37.1 °F 30.21 in Calm     91% 0.00 in 0.00 W/m2
01:46 39.3 °F 36.9 °F 30.21 in Calm     91% 0.00 in 0.00 W/m2
01:51 39.2 °F 36.8 °F 30.21 in Calm     91% 0.00 in 0.00 W/m2
01:56 39.1 °F 36.7 °F 30.21 in Calm     91% 0.00 in 0.00 W/m2
02:01 39.1 °F 36.7 °F 30.21 in Calm     91% 0.00 in 0.00 W/m2
02:07 38.9 °F 36.5 °F 30.20 in Calm     91% 0.00 in 0.00 W/m2
02:12 38.8 °F 36.4 °F 30.21 in Calm     91% 0.00 in 0.00 W/m2
02:17 38.7 °F 36.3 °F 30.21 in Calm     91% 0.00 in 0.00 W/m2
02:22 38.6 °F 36.2 °F 30.21 in Calm     91% 0.00 in 0.00 W/m2
02:27 38.5 °F 36.1 °F 30.20 in Calm     91% 0.00 in 0.00 W/m2
02:32 38.4 °F 36.0 °F 30.20 in Calm     91% 0.00 in 0.00 W/m2
02:37 38.3 °F 35.9 °F 30.20 in Calm     91% 0.00 in 0.00 W/m2
02:42 38.3 °F 35.9 °F 30.20 in Calm     91% 0.00 in 0.00 W/m2
02:47 38.3 °F 35.9 °F 30.20 in Calm     91% 0.00 in 0.00 W/m2
02:52 38.2 °F 35.8 °F 30.20 in Calm     91% 0.00 in 0.00 W/m2
02:57 38.1 °F 35.7 °F 30.20 in Calm     91% 0.00 in 0.00 W/m2
03:02 38.0 °F 35.6 °F 30.20 in Calm     91% 0.00 in 0.00 W/m2
03:07 37.8 °F 35.4 °F 30.20 in Calm     91% 0.00 in 0.00 W/m2
03:12 37.7 °F 35.3 °F 30.20 in Calm     91% 0.00 in 0.00 W/m2
03:17 37.6 °F 35.2 °F 30.20 in Calm   2.0 mph 91% 0.00 in 0.00 W/m2
03:22 37.5 °F 35.1 °F 30.20 in Calm   4.0 mph 91% 0.00 in 0.00 W/m2
03:27 37.5 °F 35.1 °F 30.20 in Calm   6.0 mph 91% 0.00 in 0.00 W/m2
03:32 37.4 °F 35.0 °F 30.20 in Calm   4.0 mph 91% 0.00 in 0.00 W/m2
03:37 37.4 °F 35.0 °F 30.20 in Calm   2.0 mph 91% 0.00 in 0.00 W/m2
03:42 37.3 °F 34.9 °F 30.20 in Calm   2.0 mph 91% 0.00 in 0.00 W/m2
03:47 37.3 °F 34.9 °F 30.20 in Calm   2.0 mph 91% 0.00 in 0.00 W/m2
03:52 37.3 °F 34.9 °F 30.20 in East 4.0 mph 4.0 mph 91% 0.00 in 0.00 W/m2
03:54 37.3 °F 34.9 °F 30.20 in East 1.0 mph 4.0 mph 91% 0.00 in 0.00 W/m2
03:59 37.2 °F 34.8 °F 30.20 in Calm   4.0 mph 91% 0.00 in 0.00 W/m2
04:04 37.2 °F 34.8 °F 30.20 in Calm   4.0 mph 91% 0.00 in 0.00 W/m2
04:09 37.1 °F 34.7 °F 30.20 in Calm   2.0 mph 91% 0.00 in 0.00 W/m2
04:14 37.1 °F 34.7 °F 30.20 in Calm   5.0 mph 91% 0.00 in 0.00 W/m2
04:19 37.0 °F 34.6 °F 30.20 in Calm   7.0 mph 91% 0.00 in 0.00 W/m2
04:24 37.0 °F 34.6 °F 30.20 in East 4.0 mph 5.0 mph 91% 0.00 in 0.00 W/m2
04:29 36.9 °F 34.5 °F 30.20 in East 1.0 mph 5.0 mph 91% 0.00 in 0.00 W/m2
04:34 36.8 °F 34.4 °F 30.20 in East 1.0 mph 6.0 mph 91% 0.00 in 0.00 W/m2
04:39 36.8 °F 34.4 °F 30.20 in Calm   5.0 mph 91% 0.00 in 0.00 W/m2
04:44 36.8 °F 34.4 °F 30.21 in Calm   6.0 mph 91% 0.00 in 0.00 W/m2
04:49 36.7 °F 34.3 °F 30.21 in Calm   5.0 mph 91% 0.00 in 0.00 W/m2
04:54 36.6 °F 34.2 °F 30.21 in Calm     91% 0.00 in 0.00 W/m2
04:59 36.6 °F 34.2 °F 30.21 in Calm     91% 0.00 in 0.00 W/m2
05:04 36.5 °F 34.1 °F 30.21 in East 2.0 mph 2.0 mph 91% 0.00 in 0.00 W/m2
05:09 36.5 °F 34.1 °F 30.21 in East 1.0 mph 5.0 mph 91% 0.00 in 0.00 W/m2
05:14 36.4 °F 34.0 °F 30.21 in East 1.0 mph 6.0 mph 91% 0.00 in 0.00 W/m2
05:19 36.4 °F 34.0 °F 30.20 in Calm   7.0 mph 91% 0.00 in 0.00 W/m2
05:24 36.3 °F 33.9 °F 30.20 in Calm   4.0 mph 91% 0.00 in 0.00 W/m2
05:29 36.3 °F 33.9 °F 30.20 in Calm     91% 0.00 in 0.00 W/m2
05:34 36.3 °F 33.9 °F 30.20 in East 1.0 mph 5.0 mph 91% 0.00 in 0.00 W/m2
05:39 36.2 °F 33.8 °F 30.20 in East 1.0 mph 4.0 mph 91% 0.00 in 0.00 W/m2
05:44 36.2 °F 33.8 °F 30.20 in Calm   5.0 mph 91% 0.00 in 0.00 W/m2
05:49 36.1 °F 33.7 °F 30.21 in East 4.0 mph 6.0 mph 91% 0.00 in 0.00 W/m2
05:54 36.1 °F 33.7 °F 30.21 in East 2.0 mph 6.0 mph 91% 0.00 in 0.00 W/m2
05:59 36.0 °F 33.6 °F 30.21 in Calm   5.0 mph 91% 0.00 in 0.00 W/m2
06:04 35.9 °F 33.5 °F 30.21 in East 2.0 mph 6.0 mph 91% 0.00 in 0.00 W/m2
06:09 35.9 °F 33.5 °F 30.21 in East 4.0 mph 6.0 mph 91% 0.00 in 0.00 W/m2
06:14 35.8 °F 33.4 °F 30.21 in Calm   6.0 mph 91% 0.00 in 0.00 W/m2
06:19 35.8 °F 33.4 °F 30.21 in Calm   7.0 mph 91% 0.00 in 0.00 W/m2
06:24 35.7 °F 33.3 °F 30.22 in Calm   6.0 mph 91% 0.00 in 5.00 W/m2
06:29 35.7 °F 33.3 °F 30.22 in Calm   4.0 mph 91% 0.00 in 7.00 W/m2
06:34 35.6 °F 33.2 °F 30.22 in Calm     91% 0.00 in 9.00 W/m2
06:40 35.5 °F 33.1 °F 30.22 in Calm     91% 0.00 in 12.00 W/m2
06:45 35.4 °F 33.0 °F 30.22 in Calm   5.0 mph 91% 0.00 in 16.00 W/m2
06:50 35.4 °F 33.0 °F 30.22 in Calm     91% 0.00 in 19.00 W/m2
06:55 35.3 °F 32.9 °F 30.22 in Calm     91% 0.00 in 26.00 W/m2
07:00 35.2 °F 32.8 °F 30.22 in Calm     91% 0.00 in 35.00 W/m2
07:05 35.1 °F 32.7 °F 30.23 in Calm     91% 0.00 in 47.00 W/m2
07:10 35.1 °F 32.7 °F 30.23 in Calm     91% 0.00 in 62.00 W/m2
07:15 35.1 °F 32.7 °F 30.23 in Calm     91% 0.00 in 79.00 W/m2
07:20 35.1 °F 32.7 °F 30.23 in Calm     91% 0.00 in 95.00 W/m2
07:25 35.1 °F 32.7 °F 30.23 in Calm     91% 0.00 in 114.00 W/m2
07:30 35.1 °F 32.7 °F 30.23 in Calm     91% 0.00 in 130.00 W/m2
07:35 35.2 °F 32.8 °F 30.23 in Calm   4.0 mph 91% 0.00 in 149.00 W/m2
07:40 35.2 °F 32.8 °F 30.23 in East 1.0 mph 5.0 mph 91% 0.00 in 171.00 W/m2
07:45 35.3 °F 32.9 °F 30.23 in Calm   5.0 mph 91% 0.00 in 193.00 W/m2
07:50 35.4 °F 33.0 °F 30.24 in East 1.0 mph 6.0 mph 91% 0.00 in 214.00 W/m2
07:55 35.5 °F 33.1 °F 30.24 in Calm   6.0 mph 91% 0.00 in 237.00 W/m2
08:00 35.6 °F 33.2 °F 30.24 in Calm   2.0 mph 91% 0.00 in 260.00 W/m2
08:05 35.7 °F 33.3 °F 30.24 in Calm   5.0 mph 91% 0.00 in 281.00 W/m2
08:10 35.8 °F 33.4 °F 30.24 in Calm   4.0 mph 91% 0.00 in 302.00 W/m2
08:15 36.0 °F 33.6 °F 30.25 in Calm     91% 0.00 in 323.00 W/m2
08:20 36.2 °F 33.8 °F 30.25 in Calm     91% 0.00 in 343.00 W/m2
08:25 36.4 °F 34.0 °F 30.25 in Calm     91% 0.00 in 362.00 W/m2
08:30 36.4 °F 34.0 °F 30.25 in Calm     91% 0.00 in 380.00 W/m2
08:35 36.6 °F 34.2 °F 30.25 in Calm     91% 0.00 in 397.00 W/m2
08:40 36.9 °F 34.5 °F 30.25 in Calm     91% 0.00 in 415.00 W/m2
08:45 37.1 °F 34.7 °F 30.25 in Calm     91% 0.00 in 432.00 W/m2
08:50 37.3 °F 34.9 °F 30.25 in Calm     91% 0.00 in 450.00 W/m2
08:55 37.6 °F 35.2 °F 30.25 in Calm     91% 0.00 in 468.00 W/m2
09:00 37.8 °F 35.4 °F 30.25 in Calm     91% 0.00 in 485.00 W/m2
09:05 38.1 °F 36.0 °F 30.25 in Calm     92% 0.00 in 501.00 W/m2
09:11 38.5 °F 36.1 °F 30.25 in Calm     91% 0.00 in 515.00 W/m2
09:16 38.7 °F 36.6 °F 30.25 in East 4.0 mph 4.0 mph 92% 0.00 in 533.00 W/m2
09:21 38.8 °F 36.4 °F 30.26 in Calm   5.0 mph 91% 0.00 in 547.00 W/m2
09:26 39.0 °F 36.6 °F 30.26 in East 4.0 mph 6.0 mph 91% 0.00 in 563.00 W/m2
09:31 39.2 °F 37.1 °F 30.26 in North 4.0 mph 7.0 mph 92% 0.00 in 580.00 W/m2
09:36 39.3 °F 37.2 °F 30.26 in North 1.0 mph 5.0 mph 92% 0.00 in 594.00 W/m2
09:41 39.4 °F 37.3 °F 30.26 in NNW 3.0 mph 8.0 mph 92% 0.00 in 610.00 W/m2
09:46 39.5 °F 37.1 °F 30.26 in NNW 3.0 mph 8.0 mph 91% 0.00 in 626.00 W/m2
09:51 39.6 °F 37.2 °F 30.26 in NNW 3.0 mph 7.0 mph 91% 0.00 in 636.00 W/m2
09:56 39.6 °F 37.2 °F 30.26 in North 4.0 mph 8.0 mph 91% 0.00 in 652.00 W/m2
10:01 39.7 °F 37.3 °F 30.26 in NNW 3.0 mph 4.0 mph 91% 0.00 in 668.00 W/m2
10:06 39.9 °F 37.5 °F 30.26 in North 5.0 mph 8.0 mph 91% 0.00 in 682.00 W/m2
10:16 40.8 °F 38.4 °F 30.26 in Calm   9.0 mph 91% 0.00 in 708.00 W/m2
10:21 41.3 °F 38.9 °F 30.26 in NNW 5.0 mph 10.0 mph 91% 0.00 in 722.00 W/m2
10:26 41.6 °F 39.2 °F 30.26 in Calm   6.0 mph 91% 0.00 in 735.00 W/m2
10:31 41.6 °F 39.2 °F 30.26 in North 5.0 mph 10.0 mph 91% 0.00 in 745.00 W/m2
10:36 41.9 °F 39.5 °F 30.26 in Calm     91% 0.00 in 756.00 W/m2
10:41 42.2 °F 39.5 °F 30.26 in Calm     90% 0.00 in 770.00 W/m2
10:46 42.5 °F 39.8 °F 30.26 in NNW 2.0 mph 2.0 mph 90% 0.00 in 782.00 W/m2
10:51 42.9 °F 39.9 °F 30.26 in NNW 4.0 mph 5.0 mph 89% 0.00 in 793.00 W/m2
10:56 42.9 °F 39.3 °F 30.26 in Calm     87% 0.00 in 800.00 W/m2
11:01 43.1 °F 39.5 °F 30.26 in Calm   5.0 mph 87% 0.00 in 812.00 W/m2
11:06 43.2 °F 38.7 °F 30.26 in NNW 3.0 mph 5.0 mph 84% 0.00 in 819.00 W/m2
11:11 43.4 °F 38.9 °F 30.26 in NNW 1.0 mph 4.0 mph 84% 0.00 in 830.00 W/m2
11:16 43.6 °F 39.1 °F 30.26 in NW 3.0 mph 3.0 mph 84% 0.00 in 838.00 W/m2
11:21 43.9 °F 39.1 °F 30.26 in Calm   5.0 mph 83% 0.00 in 847.00 W/m2
11:26 44.2 °F 38.1 °F 30.26 in NW 8.0 mph 9.0 mph 79% 0.00 in 858.00 W/m2
11:31 44.6 °F 38.5 °F 30.26 in NNW 5.0 mph 7.0 mph 79% 0.00 in 872.00 W/m2
11:36 44.9 °F 38.1 °F 30.26 in North 5.0 mph 9.0 mph 77% 0.00 in 872.00 W/m2
11:41 45.4 °F 39.0 °F 30.26 in WNW 1.0 mph 5.0 mph 78% 0.00 in 875.00 W/m2
11:46 45.8 °F 38.3 °F 30.26 in NNW 11.0 mph 11.0 mph 75% 0.00 in 884.00 W/m2
11:51 46.0 °F 38.2 °F 30.26 in NNW 8.0 mph 10.0 mph 74% 0.00 in 888.00 W/m2
11:53 46.1 °F 37.6 °F 30.26 in Calm   10.0 mph 72% 0.00 in 891.00 W/m2
11:58 46.3 °F 38.1 °F 30.26 in NNW 5.0 mph 8.0 mph 73% 0.00 in 893.00 W/m2
12:03 46.5 °F 38.7 °F 30.25 in WNW 5.0 mph 6.0 mph 74% 0.00 in 900.00 W/m2
12:08 46.8 °F 38.3 °F 30.26 in WNW 4.0 mph 9.0 mph 72% 0.00 in 911.00 W/m2
12:13 47.1 °F 38.9 °F 30.26 in NW 3.0 mph 7.0 mph 73% 0.00 in 905.00 W/m2
12:18 47.3 °F 37.7 °F 30.26 in Calm   6.0 mph 69% 0.00 in 909.00 W/m2
12:23 47.7 °F 39.1 °F 30.25 in NW 2.0 mph 3.0 mph 72% 0.00 in 916.00 W/m2
12:28 48.1 °F 38.8 °F 30.25 in Calm   8.0 mph 70% 0.00 in 911.00 W/m2
12:33 48.4 °F 38.3 °F 30.25 in NW 5.0 mph 8.0 mph 68% 0.00 in 919.00 W/m2
12:34 48.5 °F 39.2 °F 30.25 in NW 3.0 mph 8.0 mph 70% 0.00 in 919.00 W/m2
12:39 48.7 °F 39.0 °F 30.25 in Calm   7.0 mph 69% 0.00 in 933.00 W/m2
12:44 48.8 °F 36.8 °F 30.25 in NW 1.0 mph 10.0 mph 63% 0.00 in 909.00 W/m2
12:49 48.8 °F 38.0 °F 30.25 in North 8.0 mph 9.0 mph 66% 0.00 in 926.00 W/m2
12:54 48.8 °F 36.4 °F 30.25 in North 3.0 mph 10.0 mph 62% 0.00 in 928.00 W/m2
12:59 49.0 °F 36.2 °F 30.25 in Calm   5.0 mph 61% 0.00 in 926.00 W/m2
13:04 49.2 °F 35.9 °F 30.24 in NW 7.0 mph 8.0 mph 60% 0.00 in 930.00 W/m2
13:09 49.2 °F 35.5 °F 30.25 in NNW 3.0 mph 9.0 mph 59% 0.00 in 932.00 W/m2
13:19 49.4 °F 38.9 °F 30.24 in NW 4.0 mph 6.0 mph 67% 0.00 in 923.00 W/m2
13:24 49.7 °F 36.0 °F 30.24 in NNW 7.0 mph 8.0 mph 59% 0.00 in 916.00 W/m2
13:29 49.9 °F 37.4 °F 30.24 in NW 2.0 mph 9.0 mph 62% 0.00 in 919.00 W/m2
13:34 50.3 °F 38.2 °F 30.24 in Calm   4.0 mph 63% 0.00 in 918.00 W/m2
13:39 50.6 °F 38.5 °F 30.24 in WNW 1.0 mph 9.0 mph 63% 0.00 in 907.00 W/m2
13:44 50.9 °F 38.4 °F 30.24 in West 3.0 mph 12.0 mph 62% 0.00 in 881.00 W/m2
13:49 50.8 °F 36.1 °F 30.24 in WNW 1.0 mph 6.0 mph 57% 0.00 in 898.00 W/m2
13:54 51.0 °F 37.6 °F 30.24 in WNW 2.0 mph 3.0 mph 60% 0.00 in 921.00 W/m2
13:59 51.2 °F 37.4 °F 30.24 in Calm   10.0 mph 59% 0.00 in 921.00 W/m2
14:04 51.5 °F 37.7 °F 30.24 in Calm   3.0 mph 59% 0.00 in 907.00 W/m2
14:09 51.5 °F 38.1 °F 30.24 in West 1.0 mph 6.0 mph 60% 0.00 in 888.00 W/m2
14:14 51.5 °F 37.7 °F 30.24 in Calm   11.0 mph 59% 0.00 in 914.00 W/m2
14:19 51.5 °F 37.7 °F 30.24 in North 4.0 mph 9.0 mph 59% 0.00 in 912.00 W/m2
14:29 51.4 °F 34.9 °F 30.23 in Calm   3.0 mph 53% 0.00 in 863.00 W/m2
14:34 51.7 °F 37.8 °F 30.23 in West 1.0 mph 8.0 mph 59% 0.00 in 837.00 W/m2
14:39 51.7 °F 36.5 °F 30.23 in Calm   10.0 mph 56% 0.00 in 359.00 W/m2
14:44 51.7 °F 37.0 °F 30.23 in North 1.0 mph 9.0 mph 57% 0.00 in 840.00 W/m2
14:49 51.5 °F 37.7 °F 30.23 in Calm   11.0 mph 59% 0.00 in 826.00 W/m2
14:54 51.5 °F 39.3 °F 30.23 in Calm   10.0 mph 63% 0.00 in 824.00 W/m2
14:59 51.7 °F 37.8 °F 30.23 in NW 1.0 mph 9.0 mph 59% 0.00 in 858.00 W/m2
15:04 51.5 °F 38.5 °F 30.23 in Calm   10.0 mph 61% 0.00 in 830.00 W/m2
15:09 51.4 °F 38.8 °F 30.23 in WNW 5.0 mph 9.0 mph 62% 0.00 in 805.00 W/m2
15:14 51.3 °F 39.2 °F 30.23 in Calm   9.0 mph 63% 0.00 in 773.00 W/m2
15:19 51.5 °F 40.5 °F 30.23 in Calm   10.0 mph 66% 0.00 in 779.00 W/m2
15:25 51.5 °F 40.1 °F 30.23 in Calm   13.0 mph 65% 0.00 in 749.00 W/m2
15:30 51.5 °F 40.9 °F 30.22 in West 2.0 mph 10.0 mph 67% 0.00 in 842.00 W/m2
15:35 51.5 °F 41.3 °F 30.22 in NW 2.0 mph 11.0 mph 68% 0.00 in 803.00 W/m2
15:40 51.5 °F 40.9 °F 30.22 in Calm   11.0 mph 67% 0.00 in 656.00 W/m2
15:50 51.5 °F 41.3 °F 30.22 in WNW 3.0 mph 16.0 mph 68% 0.00 in 684.00 W/m2
15:55 51.4 °F 40.0 °F 30.22 in NW 9.0 mph 10.0 mph 65% 0.00 in 462.00 W/m2
16:00 51.4 °F 40.4 °F 30.22 in Calm   11.0 mph 66% 0.00 in 668.00 W/m2
16:05 51.4 °F 40.0 °F 30.22 in NNW 4.0 mph 9.0 mph 65% 0.00 in 650.00 W/m2
16:10 51.4 °F 40.4 °F 30.21 in WNW 6.0 mph 10.0 mph 66% 0.00 in 652.00 W/m2
16:15 51.5 °F 40.5 °F 30.21 in Calm   8.0 mph 66% 0.00 in 645.00 W/m2
16:20 51.7 °F 41.1 °F 30.21 in Calm   9.0 mph 67% 0.00 in 615.00 W/m2
16:25 51.6 °F 40.2 °F 30.21 in WNW 8.0 mph 8.0 mph 65% 0.00 in 594.00 W/m2
16:30 51.6 °F 41.0 °F 30.21 in NW 3.0 mph 9.0 mph 67% 0.00 in 563.00 W/m2
16:35 51.6 °F 39.0 °F 30.21 in Calm   11.0 mph 62% 0.00 in 555.00 W/m2
16:40 51.5 °F 39.3 °F 30.21 in NW 3.0 mph 12.0 mph 63% 0.00 in 540.00 W/m2
16:45 51.5 °F 39.3 °F 30.21 in Calm   11.0 mph 63% 0.00 in 522.00 W/m2
16:50 51.5 °F 40.5 °F 30.21 in WSW 6.0 mph 11.0 mph 66% 0.00 in 504.00 W/m2
16:55 51.5 °F 39.7 °F 30.21 in Calm   9.0 mph 64% 0.00 in 494.00 W/m2
17:00 51.5 °F 40.1 °F 30.21 in NW 5.0 mph 9.0 mph 65% 0.00 in 475.00 W/m2
17:05 51.4 °F 38.8 °F 30.21 in Calm   13.0 mph 62% 0.00 in 459.00 W/m2
17:10 51.3 °F 38.7 °F 30.21 in WNW 1.0 mph 9.0 mph 62% 0.00 in 443.00 W/m2
17:15 51.2 °F 41.0 °F 30.21 in NNW 7.0 mph 13.0 mph 68% 0.00 in 425.00 W/m2
17:20 51.1 °F 38.1 °F 30.21 in NW 6.0 mph 11.0 mph 61% 0.00 in 404.00 W/m2
17:25 51.0 °F 38.5 °F 30.20 in North 2.0 mph 8.0 mph 62% 0.00 in 394.00 W/m2
17:30 50.9 °F 38.4 °F 30.20 in Calm   11.0 mph 62% 0.00 in 376.00 W/m2
17:35 50.8 °F 38.3 °F 30.20 in Calm   8.0 mph 62% 0.00 in 359.00 W/m2
17:40 50.8 °F 39.9 °F 30.20 in Calm   10.0 mph 66% 0.00 in 341.00 W/m2
17:45 50.7 °F 40.2 °F 30.20 in WNW 1.0 mph 9.0 mph 67% 0.00 in 323.00 W/m2
17:47 50.6 °F 38.1 °F 30.20 in Calm   9.0 mph 62% 0.00 in 316.00 W/m2
17:52 50.5 °F 38.0 °F 30.20 in Calm   7.0 mph 62% 0.00 in 299.00 W/m2
17:57 50.4 °F 37.5 °F 30.20 in WNW 6.0 mph 8.0 mph 61% 0.00 in 279.00 W/m2
18:02 50.3 °F 38.6 °F 30.19 in NW 4.0 mph 7.0 mph 64% 0.00 in 265.00 W/m2
18:07 50.1 °F 38.0 °F 30.20 in Calm   5.0 mph 63% 0.00 in 246.00 W/m2
18:12 50.0 °F 37.5 °F 30.19 in WNW 3.0 mph 7.0 mph 62% 0.00 in 221.00 W/m2
18:17 49.9 °F 38.2 °F 30.19 in Calm   6.0 mph 64% 0.00 in 209.00 W/m2
18:22 49.7 °F 39.2 °F 30.19 in NW 6.0 mph 6.0 mph 67% 0.00 in 188.00 W/m2
18:27 49.6 °F 38.3 °F 30.19 in Calm   6.0 mph 65% 0.00 in 169.00 W/m2
18:32 49.5 °F 39.0 °F 30.19 in Calm   10.0 mph 67% 0.00 in 146.00 W/m2
18:37 49.2 °F 39.5 °F 30.19 in Calm   7.0 mph 69% 0.00 in 132.00 W/m2
18:42 48.9 °F 38.1 °F 30.19 in NNW 1.0 mph 5.0 mph 66% 0.00 in 104.00 W/m2
18:47 48.7 °F 39.4 °F 30.20 in NNW 3.0 mph 3.0 mph 70% 0.00 in 95.00 W/m2
18:52 48.5 °F 36.1 °F 30.19 in Calm   10.0 mph 62% 0.00 in 77.00 W/m2
19:02 48.3 °F 37.9 °F 30.19 in NW 6.0 mph 6.0 mph 67% 0.00 in 49.00 W/m2
19:07 48.1 °F 36.9 °F 30.19 in NW 2.0 mph 6.0 mph 65% 0.00 in 39.00 W/m2
19:12 47.9 °F 36.3 °F 30.19 in Calm   6.0 mph 64% 0.00 in 30.00 W/m2
19:17 47.6 °F 37.6 °F 30.19 in Calm     68% 0.00 in 23.00 W/m2
19:22 47.2 °F 37.2 °F 30.19 in Calm   2.0 mph 68% 0.00 in 19.00 W/m2
19:23 47.1 °F 37.5 °F 30.19 in NNW 9.0 mph 9.0 mph 69% 0.00 in 18.00 W/m2
19:28 46.7 °F 36.3 °F 30.19 in Calm   2.0 mph 67% 0.00 in 14.00 W/m2
19:33 46.4 °F 36.4 °F 30.19 in NW 1.0 mph 9.0 mph 68% 0.00 in 11.00 W/m2
19:38 46.0 °F 36.4 °F 30.19 in NNW 2.0 mph 3.0 mph 69% 0.00 in 7.00 W/m2
19:43 45.7 °F 35.8 °F 30.19 in NNW 1.0 mph 3.0 mph 68% 0.00 in 0.00 W/m2
19:48 45.4 °F 36.2 °F 30.19 in Calm   3.0 mph 70% 0.00 in 0.00 W/m2
19:53 45.2 °F 38.1 °F 30.19 in NNW 1.0 mph 2.0 mph 76% 0.00 in 0.00 W/m2
19:58 44.8 °F 38.0 °F 30.19 in Calm   3.0 mph 77% 0.00 in 0.00 W/m2
20:03 44.5 °F 37.8 °F 30.19 in Calm   5.0 mph 77% 0.00 in 0.00 W/m2
20:08 44.2 °F 37.1 °F 30.19 in Calm   4.0 mph 76% 0.00 in 0.00 W/m2
20:18 43.6 °F 36.5 °F 30.19 in NNW 2.0 mph 2.0 mph 76% 0.00 in 0.00 W/m2
20:23 43.4 °F 36.3 °F 30.19 in NNW 2.0 mph 2.0 mph 76% 0.00 in 0.00 W/m2
20:28 43.2 °F 36.5 °F 30.19 in NNW 2.0 mph 3.0 mph 77% 0.00 in 0.00 W/m2
20:33 43.1 °F 36.1 °F 30.20 in NNW 1.0 mph 3.0 mph 76% 0.00 in 0.00 W/m2
20:39 43.0 °F 35.6 °F 30.20 in Calm   3.0 mph 75% 0.00 in 0.00 W/m2
20:44 42.9 °F 35.9 °F 30.20 in Calm   4.0 mph 76% 0.00 in 0.00 W/m2
20:49 42.8 °F 35.8 °F 30.19 in Calm   4.0 mph 76% 0.00 in 0.00 W/m2
20:59 42.7 °F 35.7 °F 30.20 in NNW 1.0 mph 3.0 mph 76% 0.00 in 0.00 W/m2
21:04 42.6 °F 35.6 °F 30.20 in Calm   3.0 mph 76% 0.00 in 0.00 W/m2
21:09 42.5 °F 35.8 °F 30.20 in Calm   3.0 mph 77% 0.00 in 0.00 W/m2
21:14 42.4 °F 36.0 °F 30.20 in Calm     78% 0.00 in 0.00 W/m2
21:19 42.3 °F 35.6 °F 30.20 in Calm   2.0 mph 77% 0.00 in 0.00 W/m2
21:24 42.2 °F 35.5 °F 30.20 in Calm   2.0 mph 77% 0.00 in 0.00 W/m2
21:29 42.2 °F 35.8 °F 30.20 in Calm     78% 0.00 in 0.00 W/m2
21:34 42.2 °F 36.2 °F 30.19 in Calm     79% 0.00 in 0.00 W/m2
21:39 42.1 °F 36.1 °F 30.19 in Calm   1.0 mph 79% 0.00 in 0.00 W/m2
21:44 41.9 °F 35.9 °F 30.19 in Calm     79% 0.00 in 0.00 W/m2
21:49 41.8 °F 36.1 °F 30.19 in Calm     80% 0.00 in 0.00 W/m2
21:54 41.7 °F 36.3 °F 30.20 in Calm     81% 0.00 in 0.00 W/m2
21:59 41.5 °F 36.1 °F 30.20 in Calm     81% 0.00 in 0.00 W/m2
22:04 41.4 °F 35.7 °F 30.19 in Calm     80% 0.00 in 0.00 W/m2
22:09 41.3 °F 35.9 °F 30.19 in Calm     81% 0.00 in 0.00 W/m2
22:14 41.1 °F 35.7 °F 30.19 in Calm     81% 0.00 in 0.00 W/m2
22:19 40.9 °F 35.5 °F 30.19 in Calm     81% 0.00 in 0.00 W/m2
22:24 40.7 °F 35.3 °F 30.19 in Calm     81% 0.00 in 0.00 W/m2
22:29 40.5 °F 35.5 °F 30.19 in Calm     82% 0.00 in 0.00 W/m2
22:34 40.4 °F 35.3 °F 30.19 in Calm     82% 0.00 in 0.00 W/m2
22:39 40.4 °F 35.7 °F 30.19 in Calm     83% 0.00 in 0.00 W/m2
22:44 40.3 °F 35.6 °F 30.19 in Calm   3.0 mph 83% 0.00 in 0.00 W/m2
22:49 40.3 °F 35.6 °F 30.19 in Calm     83% 0.00 in 0.00 W/m2
22:54 40.4 °F 36.0 °F 30.19 in Calm   2.0 mph 84% 0.00 in 0.00 W/m2
22:59 40.5 °F 36.0 °F 30.19 in Calm   3.0 mph 84% 0.00 in 0.00 W/m2
23:09 40.6 °F 36.5 °F 30.19 in Calm   2.0 mph 85% 0.00 in 0.00 W/m2
23:14 40.6 °F 36.5 °F 30.19 in ENE 3.0 mph 4.0 mph 85% 0.00 in 0.00 W/m2
23:19 40.6 °F 36.5 °F 30.18 in Calm   3.0 mph 85% 0.00 in 0.00 W/m2
23:24 40.7 °F 36.5 °F 30.18 in Calm   3.0 mph 85% 0.00 in 0.00 W/m2
23:29 40.7 °F 36.5 °F 30.18 in East 2.0 mph 5.0 mph 85% 0.00 in 0.00 W/m2
23:34 40.8 °F 36.7 °F 30.18 in Calm   5.0 mph 85% 0.00 in 0.00 W/m2
23:39 40.8 °F 36.7 °F 30.19 in Calm   6.0 mph 85% 0.00 in 0.00 W/m2
23:44 40.8 °F 36.7 °F 30.19 in East 4.0 mph 7.0 mph 85% 0.00 in 0.00 W/m2
23:50 40.8 °F 36.9 °F 30.19 in East 5.0 mph 7.0 mph 86% 0.00 in 0.00 W/m2
23:55 40.9 °F 37.0 °F 30.19 in East 4.0 mph 8.0 mph 86% 0.00 in 0.00 W/m2
Foresthill Weather
 WU-history PHP script courtesy of   Juneau County Weather.
powered by Cumulus v1.9.3 (1059)
Ambient Weather VWS v14.00
Top Contact Website Map Copyright © 2007 - 2018 Foresthillweather.com Never base important decisions on this or any weather information obtained from the Internet